createdAt,value
2023-04-13T00:04:23.074Z,8.70
2023-04-13T00:09:31.277Z,8.55
2023-04-13T00:14:34.040Z,8.52
2023-04-13T00:19:37.046Z,9.13
2023-04-13T00:24:39.227Z,9.13
2023-04-13T00:29:41.797Z,8.67
2023-04-13T00:34:45.597Z,8.38
2023-04-13T00:39:47.818Z,8.80
2023-04-13T00:44:49.969Z,9.02
2023-04-13T00:49:55.955Z,10.02
2023-04-13T00:54:58.206Z,11.70
2023-04-13T01:00:06.608Z,11.65
2023-04-13T01:05:12.356Z,10.98
2023-04-13T01:10:38.289Z,12.37
2023-04-13T01:15:54.393Z,11.77
2023-04-13T01:21:00.270Z,11.23
2023-04-13T01:26:08.642Z,11.57
2023-04-13T01:31:13.520Z,11.55
2023-04-13T01:36:16.971Z,11.18
2023-04-13T01:41:19.173Z,11.65
2023-04-13T01:46:26.493Z,11.23
2023-04-13T01:51:32.373Z,11.35
2023-04-13T01:56:35.914Z,10.25
2023-04-13T02:01:38.967Z,9.75
2023-04-13T02:06:42.372Z,9.82
2023-04-13T02:11:44.505Z,8.87
2023-04-13T02:16:46.837Z,9.57
2023-04-13T02:21:49.052Z,10.18
2023-04-13T02:26:51.202Z,9.13
2023-04-13T02:31:53.419Z,8.93
2023-04-13T02:36:55.848Z,9.67
2023-04-13T02:41:59.164Z,8.82
2023-04-13T02:47:03.838Z,9.20
2023-04-13T02:52:06.442Z,8.80
2023-04-13T02:57:10.660Z,8.45
2023-04-13T03:02:13.823Z,8.33
2023-04-13T03:07:19.495Z,8.10
2023-04-13T03:12:23.164Z,7.55
2023-04-13T03:17:25.497Z,7.72
2023-04-13T03:22:30.713Z,7.75
2023-04-13T03:27:32.978Z,7.30
2023-04-13T03:32:35.181Z,8.30
2023-04-13T03:37:42.810Z,8.07
2023-04-13T03:42:45.108Z,7.35
2023-04-13T03:47:47.424Z,8.20
2023-04-13T03:52:49.761Z,9.47
2023-04-13T03:57:51.985Z,7.72
2023-04-13T04:02:54.265Z,6.97
2023-04-13T04:07:56.685Z,7.37
2023-04-13T04:12:58.854Z,6.90
2023-04-13T04:18:01.123Z,6.30
2023-04-13T04:23:05.076Z,7.05
2023-04-13T04:28:07.559Z,6.35
2023-04-13T04:33:10.733Z,6.20
2023-04-13T04:38:12.868Z,6.12
2023-04-13T04:43:15.469Z,6.23
2023-04-13T04:48:19.417Z,6.62
2023-04-13T04:53:22.192Z,6.90
2023-04-13T04:58:24.375Z,6.82
2023-04-13T05:03:26.681Z,6.45
2023-04-13T05:08:30.423Z,7.33
2023-04-13T05:13:32.607Z,7.65
2023-04-13T05:18:44.164Z,7.22
2023-04-13T05:23:52.677Z,7.85
2023-04-13T05:28:55.917Z,8.30
2023-04-13T05:33:58.132Z,8.10
2023-04-13T05:39:01.728Z,7.50
2023-04-13T05:44:04.085Z,8.23
2023-04-13T05:49:09.399Z,7.07
2023-04-13T05:54:18.657Z,6.25
2023-04-13T05:59:30.875Z,6.00
2023-04-13T06:04:37.642Z,6.37
2023-04-13T06:09:53.537Z,6.37
2023-04-13T06:15:01.064Z,5.75
2023-04-13T06:20:07.262Z,6.12
2023-04-13T06:25:12.267Z,5.80
2023-04-13T06:30:14.923Z,5.60
2023-04-13T06:35:20.817Z,5.78
2023-04-13T06:40:23.370Z,6.47
2023-04-13T06:45:34.037Z,5.25
2023-04-13T06:50:43.337Z,6.00
2023-04-13T06:55:53.121Z,5.35
2023-04-13T07:00:55.377Z,5.97
2023-04-13T07:05:58.799Z,5.83
2023-04-13T07:11:04.031Z,5.57
2023-04-13T07:16:09.121Z,5.70
2023-04-13T07:21:11.948Z,5.75
2023-04-13T07:26:18.531Z,6.20
2023-04-13T07:31:22.036Z,5.70
2023-04-13T07:36:24.576Z,5.93
2023-04-13T07:41:31.181Z,5.93
2023-04-13T07:46:38.784Z,6.25
2023-04-13T07:51:41.917Z,5.90
2023-04-13T07:56:44.237Z,6.07
2023-04-13T08:01:46.562Z,6.00
2023-04-13T08:06:49.000Z,6.10
2023-04-13T08:11:51.649Z,6.22
2023-04-13T08:16:54.445Z,6.82
2023-04-13T08:21:57.862Z,5.70
2023-04-13T08:27:00.133Z,5.95
2023-04-13T08:32:02.794Z,5.43
2023-04-13T08:37:04.958Z,5.40
2023-04-13T08:42:08.090Z,4.47
2023-04-13T08:47:11.394Z,4.47
2023-04-13T08:52:16.573Z,3.95
2023-04-13T08:57:21.218Z,4.10
2023-04-13T09:02:26.494Z,4.60
2023-04-13T09:07:32.291Z,4.10
2023-04-13T09:12:34.972Z,4.30
2023-04-13T09:17:37.457Z,4.32
2023-04-13T09:22:39.736Z,4.60
2023-04-13T09:27:42.106Z,3.87
2023-04-13T09:32:44.372Z,4.10
2023-04-13T09:37:47.934Z,4.10
2023-04-13T09:42:58.857Z,4.00
2023-04-13T09:48:15.853Z,4.00
2023-04-13T09:53:18.046Z,3.70
2023-04-13T09:58:20.242Z,4.00
2023-04-13T10:03:23.846Z,4.43
2023-04-13T10:08:36.605Z,3.95
2023-04-13T10:13:57.071Z,3.90
2023-04-13T10:19:15.532Z,3.75
2023-04-13T10:24:19.580Z,4.10
2023-04-13T10:29:29.760Z,3.80
2023-04-13T10:34:38.463Z,3.65
2023-04-13T10:39:40.889Z,3.80
2023-04-13T10:44:48.489Z,3.37
2023-04-13T10:49:57.641Z,4.05
2023-04-13T10:55:05.367Z,4.32
2023-04-13T11:00:24.013Z,3.78
2023-04-13T11:05:30.166Z,4.17
2023-04-13T11:10:32.590Z,3.90
2023-04-13T11:15:34.725Z,4.00
2023-04-13T11:20:38.916Z,4.40
2023-04-13T11:26:02.187Z,4.43
2023-04-13T11:31:05.312Z,3.90
2023-04-13T11:36:08.128Z,4.70
2023-04-13T11:41:25.970Z,4.72
2023-04-13T11:46:33.870Z,4.27
2023-04-13T11:51:38.023Z,4.40
2023-04-13T11:56:48.543Z,4.93
2023-04-13T12:02:01.890Z,4.35
2023-04-13T12:07:12.692Z,4.28
2023-04-13T12:17:41.390Z,2.97
2023-04-13T12:22:54.923Z,3.10
2023-04-13T12:28:06.145Z,2.92
2023-04-13T12:33:08.552Z,3.50
2023-04-13T12:38:10.770Z,3.80
2023-04-13T12:43:13.798Z,3.42
2023-04-13T12:48:16.972Z,3.53
2023-04-13T12:53:19.326Z,3.60
2023-04-13T12:58:21.787Z,3.70
2023-04-13T13:03:24.260Z,3.20
2023-04-13T13:08:26.551Z,3.70
2023-04-13T13:13:28.764Z,3.67
2023-04-13T13:18:46.687Z,3.92
2023-04-13T13:23:51.624Z,3.20
2023-04-13T13:28:53.920Z,3.17
2023-04-13T13:33:56.123Z,3.03
2023-04-13T13:38:59.881Z,2.80
2023-04-13T13:44:02.292Z,3.17
2023-04-13T13:49:05.304Z,3.28
2023-04-13T13:54:07.510Z,2.83
2023-04-13T13:59:09.632Z,2.75
2023-04-13T14:04:12.857Z,2.93
2023-04-13T14:09:17.126Z,2.90
2023-04-13T14:14:22.244Z,3.08
2023-04-13T14:19:25.315Z,3.07
2023-04-13T14:24:29.914Z,2.60
2023-04-13T14:29:32.174Z,2.73
2023-04-13T14:34:34.338Z,2.80
2023-04-13T14:39:36.701Z,3.00
2023-04-13T14:44:39.493Z,3.00
2023-04-13T14:49:43.166Z,2.65
2023-04-13T14:54:46.116Z,2.63
2023-04-13T14:59:48.280Z,3.35
2023-04-13T15:04:50.605Z,2.95
2023-04-13T15:09:52.832Z,2.73
2023-04-13T15:14:56.392Z,3.03
2023-04-13T15:19:59.978Z,3.10
2023-04-13T15:25:02.259Z,2.78
2023-04-13T15:30:05.194Z,2.83
2023-04-13T15:35:07.639Z,3.27
2023-04-13T15:40:10.741Z,3.08
2023-04-13T15:45:13.366Z,3.03
2023-04-13T15:50:16.084Z,2.97
2023-04-13T15:55:19.856Z,3.50
2023-04-13T16:00:22.245Z,3.27
2023-04-13T16:05:25.645Z,3.20
2023-04-13T16:10:27.893Z,3.60
2023-04-13T16:15:30.153Z,6.75
2023-04-13T16:20:32.490Z,6.72
2023-04-13T16:25:34.738Z,6.40
2023-04-13T16:30:37.683Z,7.22
2023-04-13T16:35:39.953Z,5.97
2023-04-13T16:40:42.186Z,6.07
2023-04-13T16:45:44.738Z,6.87
2023-04-13T16:50:47.085Z,7.03
2023-04-13T16:55:51.497Z,6.95
2023-04-13T17:00:55.284Z,6.87
2023-04-13T17:05:57.529Z,7.22
2023-04-13T17:10:59.673Z,8.23
2023-04-13T17:16:01.956Z,8.10
2023-04-13T17:21:04.324Z,7.90
2023-04-13T17:26:06.822Z,8.03
2023-04-13T17:31:09.302Z,8.63
2023-04-13T17:36:13.309Z,9.13
2023-04-13T17:41:15.585Z,8.73
2023-04-13T17:46:17.924Z,8.75
2023-04-13T17:51:20.107Z,8.73
2023-04-13T17:56:22.255Z,9.23
2023-04-13T18:01:25.915Z,10.43
2023-04-13T18:06:28.324Z,9.13
2023-04-13T18:11:30.996Z,9.35
2023-04-13T18:16:33.363Z,9.70
2023-04-13T18:21:37.180Z,10.20
2023-04-13T18:26:39.678Z,10.10
2023-04-13T18:31:46.589Z,12.73
2023-04-13T18:36:50.565Z,11.02
2023-04-13T18:41:52.750Z,10.77
2023-04-13T18:46:55.053Z,12.37
2023-04-13T18:51:57.326Z,9.85
2023-04-13T18:56:59.583Z,9.82
2023-04-13T19:02:02.022Z,10.20
2023-04-13T19:07:10.589Z,9.57
2023-04-13T19:12:12.779Z,10.10
2023-04-13T19:17:16.497Z,11.05
2023-04-13T19:22:21.576Z,10.98
2023-04-13T19:27:23.946Z,11.35
2023-04-13T19:32:26.623Z,11.47
2023-04-13T19:37:28.954Z,11.80
2023-04-13T19:42:31.530Z,10.68
2023-04-13T19:47:33.915Z,10.93
2023-04-13T19:52:36.259Z,11.05
2023-04-13T19:57:42.110Z,11.87
2023-04-13T20:02:47.157Z,10.45
2023-04-13T20:07:49.903Z,11.15
2023-04-13T20:12:52.120Z,10.13
2023-04-13T20:17:54.694Z,9.93
2023-04-13T20:22:56.900Z,9.33
2023-04-13T20:27:59.083Z,9.35
2023-04-13T20:33:01.518Z,9.43
2023-04-13T20:38:04.886Z,9.98
2023-04-13T20:43:12.967Z,9.52
2023-04-13T20:53:20.797Z,9.55
2023-04-13T20:58:26.984Z,9.82
2023-04-13T21:03:32.708Z,9.68
2023-04-13T21:08:35.096Z,9.88
2023-04-13T21:13:37.316Z,10.33
2023-04-13T21:18:41.723Z,10.77
2023-04-13T21:23:43.963Z,11.60
2023-04-13T21:28:46.201Z,11.55
2023-04-13T21:33:48.508Z,11.50
2023-04-13T21:38:50.837Z,10.67
2023-04-13T21:43:53.094Z,10.95
2023-04-13T21:48:56.095Z,10.50
2023-04-13T21:53:58.228Z,8.77
2023-04-13T21:59:01.018Z,9.75
2023-04-13T22:04:03.518Z,10.20
2023-04-13T22:09:05.932Z,10.10
2023-04-13T22:14:08.185Z,11.18
2023-04-13T22:19:10.366Z,10.80
2023-04-13T22:24:12.877Z,11.82
2023-04-13T22:29:15.498Z,10.67
2023-04-13T22:34:17.594Z,10.57
2023-04-13T22:39:19.821Z,10.88
2023-04-13T22:44:21.920Z,11.85
2023-04-13T22:49:24.065Z,11.60
2023-04-13T22:54:26.183Z,11.80
2023-04-13T22:59:28.305Z,11.23
2023-04-13T23:04:31.106Z,11.40
2023-04-13T23:09:33.558Z,10.40
2023-04-13T23:14:35.766Z,10.48
2023-04-13T23:19:37.875Z,9.20
2023-04-13T23:24:39.961Z,8.73
2023-04-13T23:29:45.604Z,9.27
2023-04-13T23:34:47.885Z,8.50
2023-04-13T23:39:50.045Z,8.32
2023-04-13T23:44:52.228Z,7.17
2023-04-13T23:49:55.770Z,5.55
2023-04-13T23:54:57.963Z,5.25
